Aviation Digital Data Service (ADDS)

Output produced by METARs form (0225 UTC 16 January 2019)
found at http://www.aviationweather.gov/metar/data/
 
SPHY 151700Z 1518/1618 05010KT 8000 FEW012 BKN080 TX14/1519Z TN02/1611Z 
     TEMPO 1518/1522 30010KT FEW020 SCT040 
     BECMG 1522/1523 00000KT
       
TAF COR SPQU 152334Z 1600/1624 03005KT 8000 SCT005 BKN050 TX20/1619Z TN10/1611Z 
     BECMG 1600/1603 6000 BKN004 BKN008 
     FM160500 33005KT 9000 SCT015 SCT040 
     FM161400 25010KT 9999 SCT030
       
SPHO 151700Z 1518/1618 05010KT 9999 FEW015 BKN090 TX24/1520Z TN10/1611Z 
     TEMPO 1518/1523 RA FEW040TCU SCT080
       
SPJR 151700Z 1518/1618 17008KT 9999 SCT026 BKN043 TX23/1519Z TN09/1610Z 
     TEMPO 1519/1520 RA SCT023 OVC043 
     BECMG 1522/1523 VRB02KT SCT026 BKN046
       
SPHI 152300Z 1600/1624 18015KT 9999 BKN040 TX29/1619Z TN21/1611Z 
     FM160600 18010KT 9999 SCT030 BKN090 
     FM161600 18015KT CAVOK
       
TAF SPZO 152300Z 1600/1624 VRB02KT 9999 FEW040TCU SCT046 BKN070 TX21/1619Z
TN09/1611Z 
     BECMG 1601/1603 SCT043 BKN100 
     TEMPO 1617/1623 30012KT DZ FEW040TCU SCT050 BKN080
       
TAF SPLO 151650Z 1518/1618 16008KT CAVOK TX25/1519Z TN18/1610Z 
     FM160200 14006KT 9999 BKN040
       
TAF SPQT 152300Z 1600/1624 25004KT 9999 BKN015 BKN070 TX30/1619Z TN23/1611Z 
     TEMPO 1601/1604 04010KT 5000 RADZ BKN010 FEW025CB OVC070 
     TEMPO 1606/1609 09015KT 3000 TSRA BKN008 FEW020CB OVC080 
     TEMPO 1609/1612 7000 DZRA BKN005 BKN080 
     TEMPO 1617/1621 08012KT 4000 SHRA BKN015 FEW025TCU BKN080
       
SPJI 151700Z 1518/1618 00000KT 9999 SCT020 SCT080 TX32/1520Z TN18/1611Z 
     TEMPO 1602/1606 10010KT 5000 DZ BKN020 OVC070 
     TEMPO 1609/1613 12007KT 7000 DZRA BKN010 BKN080
       
TAF SPJL 152322Z 1600/1624 06006KT 9999 SCT015 BKN080 TX17/1619Z TN06/1610Z 
     TEMPO 1600/1602 RA 
     FM160600 01003KT 9999 SCT010 SCT100
       
SPSO 152300Z 1600/1624 23014KT CAVOK TX26/1619Z TN20/1610Z 
     BECMG 1606/1608 21008KT 8000 BKN040 
     FM161800 23015KT 9999 SCT050
       
SPCL 152300Z 1600/1624 33004KT 9999 SCT020 BKN080 TX30/1619Z TN23/1611Z 
     TEMPO 1601/1605 06010KT 4000 RADZ BKN010 BKN070 
     TEMPO 1608/1612 8000 DZRA BKN006 OVC080 
     TEMPO 1617/1621 05010KT 4000 SHRA BKN015 FEW025TCU BKN070
       
SPTU 151700Z 1518/1618 33003KT 9999 SCT010 FEW020 BKN120 TX29/1519Z TN23/1611Z 
     TEMPO 1518/1523 RA FEW020TCU BKN100 
     BECMG 1600/1602 FEW040 SCT100
       
TAF SPTN 152322Z 1600/1624 25005KT 9999 SCT080 TX26/1619Z TN18/1611Z 
     FM161600 23010KT CAVOK
       
SPYL 151700Z 1518/1618 16012KT CAVOK TX32/1519Z TN22/1611Z 
     BECMG 1520/1522 21008KT 
     BECMG 1612/1614 15015KT
       
SPST 152300Z 1600/1624 VRB02KT 9999 SCT020 TX31/1620Z TN21/1611Z 
     TEMPO 1612/1614 4000 RA BKN008 OVC080 
     FM161400 33008KT 8000 SCT015 BKN080
       
SPGM 151700Z 1518/1618 VRB02KT 9999 SCT020 BKN100 TX28/1519Z TN21/1611Z 
     TEMPO 1519/1522 5000 RA SCT015 OVC080
       
SPRU 152300Z 1600/1624 14010KT 9999 SCT040 SCT120 TX26/1619Z TN21/1611Z 
     FM160600 15007KT 8000 BKN040 
     FM161500 16011KT 9999 SCT025 SCT150
       
SPME 152300Z 1600/1624 15004KT 9999 SCT013 BKN015 TX31/1619Z TN22/1611Z 
     TEMPO 1612/1614 8000 DZ SCT010 BKN015 
     BECMG 1615/1617 33010KT FEW013 BKN020
       
SPMS 151700Z 1518/1618 02004KT 9999 SCT015 BKN100 TX28/1520Z TN23/1611Z 
     TEMPO 1522/1604 09010KT 4000 RADZ BKN008 FEW025CB BKN070 
     TEMPO 1609/1613 8000 BKN007 BKN100